sensor_id;sensor_type;location;lat;lon;timestamp;temperature;humidity
21184;DHT22;18176;49.502;11.754;2024-01-10T00:01:10;-5.90;99.90
21184;DHT22;18176;49.502;11.754;2024-01-10T00:05:30;-5.80;99.90
21184;DHT22;18176;49.502;11.754;2024-01-10T00:09:51;-5.80;99.90
21184;DHT22;18176;49.502;11.754;2024-01-10T00:14:14;-5.90;99.90
21184;DHT22;18176;49.502;11.754;2024-01-10T00:18:35;-5.90;99.90
21184;DHT22;18176;49.502;11.754;2024-01-10T00:22:57;-5.90;99.90
21184;DHT22;18176;49.502;11.754;2024-01-10T00:27:18;-5.90;99.90
21184;DHT22;18176;49.502;11.754;2024-01-10T00:31:42;-5.90;99.90
21184;DHT22;18176;49.502;11.754;2024-01-10T00:36:03;-5.90;99.90
21184;DHT22;18176;49.502;11.754;2024-01-10T00:40:24;-5.90;99.90
21184;DHT22;18176;49.502;11.754;2024-01-10T00:44:45;-5.90;99.90
21184;DHT22;18176;49.502;11.754;2024-01-10T00:49:08;-6.00;99.90
21184;DHT22;18176;49.502;11.754;2024-01-10T00:53:29;-5.90;99.90
21184;DHT22;18176;49.502;11.754;2024-01-10T00:57:49;-5.90;99.90
21184;DHT22;18176;49.502;11.754;2024-01-10T01:02:10;-6.00;99.90
21184;DHT22;18176;49.502;11.754;2024-01-10T01:06:33;-6.00;99.90
21184;DHT22;18176;49.502;11.754;2024-01-10T01:10:54;-6.00;99.90
21184;DHT22;18176;49.502;11.754;2024-01-10T01:15:15;-6.00;99.90
21184;DHT22;18176;49.502;11.754;2024-01-10T01:19:35;-6.00;99.90
21184;DHT22;18176;49.502;11.754;2024-01-10T01:23:58;-6.00;99.90
21184;DHT22;18176;49.502;11.754;2024-01-10T01:28:19;-6.00;99.90
21184;DHT22;18176;49.502;11.754;2024-01-10T01:32:40;-6.00;99.90
21184;DHT22;18176;49.502;11.754;2024-01-10T01:37:01;-6.00;99.90
21184;DHT22;18176;49.502;11.754;2024-01-10T01:41:25;-6.10;99.90
21184;DHT22;18176;49.502;11.754;2024-01-10T01:45:46;-6.00;99.90
21184;DHT22;18176;49.502;11.754;2024-01-10T01:50:07;-5.90;99.90
21184;DHT22;18176;49.502;11.754;2024-01-10T01:54:29;-5.90;99.90
21184;DHT22;18176;49.502;11.754;2024-01-10T01:58:54;-5.90;99.90
21184;DHT22;18176;49.502;11.754;2024-01-10T02:03:16;-6.00;99.90
21184;DHT22;18176;49.502;11.754;2024-01-10T02:07:37;-6.10;99.90
21184;DHT22;18176;49.502;11.754;2024-01-10T02:11:57;-6.20;99.90
21184;DHT22;18176;49.502;11.754;2024-01-10T02:16:21;-6.40;99.90
21184;DHT22;18176;49.502;11.754;2024-01-10T02:20:43;-6.40;99.90
21184;DHT22;18176;49.502;11.754;2024-01-10T02:25:08;-6.50;99.90
21184;DHT22;18176;49.502;11.754;2024-01-10T02:29:30;-6.60;99.90
21184;DHT22;18176;49.502;11.754;2024-01-10T02:33:51;-6.70;99.90
21184;DHT22;18176;49.502;11.754;2024-01-10T02:38:11;-6.80;99.90
21184;DHT22;18176;49.502;11.754;2024-01-10T02:42:35;-6.90;99.90
21184;DHT22;18176;49.502;11.754;2024-01-10T02:46:56;-7.00;99.90
21184;DHT22;18176;49.502;11.754;2024-01-10T02:51:16;-6.90;99.90
21184;DHT22;18176;49.502;11.754;2024-01-10T02:55:37;-7.00;99.90
21184;DHT22;18176;49.502;11.754;2024-01-10T03:00:01;-7.00;99.90
21184;DHT22;18176;49.502;11.754;2024-01-10T03:04:22;-7.00;99.90
21184;DHT22;18176;49.502;11.754;2024-01-10T03:08:42;-6.90;99.90
21184;DHT22;18176;49.502;11.754;2024-01-10T03:13:03;-6.90;99.90
21184;DHT22;18176;49.502;11.754;2024-01-10T03:17:26;-7.00;99.90
21184;DHT22;18176;49.502;11.754;2024-01-10T03:21:48;-7.10;99.90
21184;DHT22;18176;49.502;11.754;2024-01-10T03:26:09;-7.00;99.90
21184;DHT22;18176;49.502;11.754;2024-01-10T03:30:30;-7.00;99.90
21184;DHT22;18176;49.502;11.754;2024-01-10T03:34:53;-7.10;99.90
21184;DHT22;18176;49.502;11.754;2024-01-10T03:39:14;-7.20;99.90
21184;DHT22;18176;49.502;11.754;2024-01-10T03:43:35;-7.20;99.90
21184;DHT22;18176;49.502;11.754;2024-01-10T03:47:55;-7.20;99.90
21184;DHT22;18176;49.502;11.754;2024-01-10T03:52:19;-7.30;99.90
21184;DHT22;18176;49.502;11.754;2024-01-10T03:56:39;-7.40;99.90
21184;DHT22;18176;49.502;11.754;2024-01-10T04:01:04;-7.30;99.90
21184;DHT22;18176;49.502;11.754;2024-01-10T04:05:26;-7.30;99.90
21184;DHT22;18176;49.502;11.754;2024-01-10T04:09:49;-7.40;99.90
21184;DHT22;18176;49.502;11.754;2024-01-10T04:14:10;-7.40;99.90
21184;DHT22;18176;49.502;11.754;2024-01-10T04:18:31;-7.30;99.90
21184;DHT22;18176;49.502;11.754;2024-01-10T04:22:52;-7.30;99.90
21184;DHT22;18176;49.502;11.754;2024-01-10T04:27:15;-7.40;99.90
21184;DHT22;18176;49.502;11.754;2024-01-10T04:31:35;-7.40;99.90
21184;DHT22;18176;49.502;11.754;2024-01-10T04:35:56;-7.20;99.90
21184;DHT22;18176;49.502;11.754;2024-01-10T04:40:17;-7.20;99.90
21184;DHT22;18176;49.502;11.754;2024-01-10T04:44:40;-7.20;99.90
21184;DHT22;18176;49.502;11.754;2024-01-10T04:49:01;-7.30;99.90
21184;DHT22;18176;49.502;11.754;2024-01-10T04:53:21;-7.50;99.90
21184;DHT22;18176;49.502;11.754;2024-01-10T04:57:42;-7.50;99.90
21184;DHT22;18176;49.502;11.754;2024-01-10T05:02:05;-7.60;99.90
21184;DHT22;18176;49.502;11.754;2024-01-10T05:06:26;-7.60;99.90
21184;DHT22;18176;49.502;11.754;2024-01-10T05:10:46;-7.50;99.90
21184;DHT22;18176;49.502;11.754;2024-01-10T05:15:08;-7.50;99.90
21184;DHT22;18176;49.502;11.754;2024-01-10T05:19:32;-7.50;99.90
21184;DHT22;18176;49.502;11.754;2024-01-10T05:23:53;-7.50;99.90
21184;DHT22;18176;49.502;11.754;2024-01-10T05:28:13;-7.60;99.90
21184;DHT22;18176;49.502;11.754;2024-01-10T05:32:35;-7.60;99.90
21184;DHT22;18176;49.502;11.754;2024-01-10T05:36:58;-7.60;99.90
21184;DHT22;18176;49.502;11.754;2024-01-10T05:41:19;-7.60;99.90
21184;DHT22;18176;49.502;11.754;2024-01-10T05:45:39;-7.60;99.90
21184;DHT22;18176;49.502;11.754;2024-01-10T05:50:00;-7.50;99.90
21184;DHT22;18176;49.502;11.754;2024-01-10T05:54:26;-7.50;99.90
21184;DHT22;18176;49.502;11.754;2024-01-10T05:58:47;-7.50;99.90
21184;DHT22;18176;49.502;11.754;2024-01-10T06:03:08;-7.50;99.90
21184;DHT22;18176;49.502;11.754;2024-01-10T06:07:28;-7.40;99.90
21184;DHT22;18176;49.502;11.754;2024-01-10T06:11:51;-7.40;99.90
21184;DHT22;18176;49.502;11.754;2024-01-10T06:16:12;-7.50;99.90
21184;DHT22;18176;49.502;11.754;2024-01-10T06:20:34;-7.40;99.90
21184;DHT22;18176;49.502;11.754;2024-01-10T06:24:56;-7.30;99.90
21184;DHT22;18176;49.502;11.754;2024-01-10T06:29:19;-7.20;99.90
21184;DHT22;18176;49.502;11.754;2024-01-10T06:33:40;-7.00;99.90
21184;DHT22;18176;49.502;11.754;2024-01-10T06:38:01;-7.00;99.90
21184;DHT22;18176;49.502;11.754;2024-01-10T06:42:23;-7.10;99.90
21184;DHT22;18176;49.502;11.754;2024-01-10T06:46:46;-7.20;99.90
21184;DHT22;18176;49.502;11.754;2024-01-10T06:51:10;-7.40;99.90
21184;DHT22;18176;49.502;11.754;2024-01-10T06:55:32;-7.40;99.90
21184;DHT22;18176;49.502;11.754;2024-01-10T06:59:53;-7.40;99.90
21184;DHT22;18176;49.502;11.754;2024-01-10T07:04:16;-7.30;99.90
21184;DHT22;18176;49.502;11.754;2024-01-10T07:08:42;-7.30;99.90
21184;DHT22;18176;49.502;11.754;2024-01-10T07:13:03;-7.30;99.90
21184;DHT22;18176;49.502;11.754;2024-01-10T07:17:24;-7.40;99.90
21184;DHT22;18176;49.502;11.754;2024-01-10T07:21:47;-7.50;99.90
21184;DHT22;18176;49.502;11.754;2024-01-10T07:26:08;-7.50;99.90
21184;DHT22;18176;49.502;11.754;2024-01-10T07:30:29;-7.40;99.90
21184;DHT22;18176;49.502;11.754;2024-01-10T07:34:50;-7.40;99.90
21184;DHT22;18176;49.502;11.754;2024-01-10T07:39:14;-7.30;99.90
21184;DHT22;18176;49.502;11.754;2024-01-10T07:43:35;-7.20;99.90
21184;DHT22;18176;49.502;11.754;2024-01-10T07:47:57;-7.10;99.90
21184;DHT22;18176;49.502;11.754;2024-01-10T07:52:18;-7.00;99.90
21184;DHT22;18176;49.502;11.754;2024-01-10T07:56:44;-7.00;99.90
21184;DHT22;18176;49.502;11.754;2024-01-10T08:01:05;-6.70;99.90
21184;DHT22;18176;49.502;11.754;2024-01-10T08:05:29;-6.30;99.90
21184;DHT22;18176;49.502;11.754;2024-01-10T08:09:49;-5.80;99.90
21184;DHT22;18176;49.502;11.754;2024-01-10T08:14:14;-5.30;99.90
21184;DHT22;18176;49.502;11.754;2024-01-10T08:18:35;-4.90;99.90
21184;DHT22;18176;49.502;11.754;2024-01-10T08:22:56;-4.50;99.90
21184;DHT22;18176;49.502;11.754;2024-01-10T08:27:17;-4.20;99.90
21184;DHT22;18176;49.502;11.754;2024-01-10T08:31:40;-3.80;99.90
21184;DHT22;18176;49.502;11.754;2024-01-10T08:36:01;-3.40;99.90
21184;DHT22;18176;49.502;11.754;2024-01-10T08:40:21;-3.10;99.90
21184;DHT22;18176;49.502;11.754;2024-01-10T08:44:43;-2.90;99.90
21184;DHT22;18176;49.502;11.754;2024-01-10T08:49:06;-2.70;99.90
21184;DHT22;18176;49.502;11.754;2024-01-10T08:53:28;-2.50;99.90
21184;DHT22;18176;49.502;11.754;2024-01-10T08:57:50;-2.50;99.90
21184;DHT22;18176;49.502;11.754;2024-01-10T09:02:10;-2.20;99.90
21184;DHT22;18176;49.502;11.754;2024-01-10T09:06:34;-1.70;99.90
21184;DHT22;18176;49.502;11.754;2024-01-10T09:10:55;-1.60;99.90
21184;DHT22;18176;49.502;11.754;2024-01-10T09:15:15;-1.50;99.90
21184;DHT22;18176;49.502;11.754;2024-01-10T09:19:36;-1.70;99.90
21184;DHT22;18176;49.502;11.754;2024-01-10T09:23:59;-1.90;99.90
21184;DHT22;18176;49.502;11.754;2024-01-10T09:28:38;-1.90;99.90
21184;DHT22;18176;49.502;11.754;2024-01-10T09:32:58;-1.50;99.90
21184;DHT22;18176;49.502;11.754;2024-01-10T09:37:20;-1.00;99.90
21184;DHT22;18176;49.502;11.754;2024-01-10T09:41:47;-0.90;99.90
21184;DHT22;18176;49.502;11.754;2024-01-10T09:46:09;-0.30;99.90
21184;DHT22;18176;49.502;11.754;2024-01-10T09:50:30;-0.40;99.90
21184;DHT22;18176;49.502;11.754;2024-01-10T09:54:55;-0.50;99.90
21184;DHT22;18176;49.502;11.754;2024-01-10T09:59:19;-0.50;99.90
21184;DHT22;18176;49.502;11.754;2024-01-10T10:03:41;-0.20;99.90
21184;DHT22;18176;49.502;11.754;2024-01-10T10:08:07;0.10;99.90
21184;DHT22;18176;49.502;11.754;2024-01-10T10:12:42;0.20;99.90
21184;DHT22;18176;49.502;11.754;2024-01-10T10:17:17;0.20;99.90
21184;DHT22;18176;49.502;11.754;2024-01-10T10:21:38;0.50;99.90
21184;DHT22;18176;49.502;11.754;2024-01-10T10:26:10;0.80;99.90
21184;DHT22;18176;49.502;11.754;2024-01-10T10:30:38;1.30;99.90
21184;DHT22;18176;49.502;11.754;2024-01-10T10:35:02;1.20;99.90
21184;DHT22;18176;49.502;11.754;2024-01-10T10:39:34;1.50;99.90
21184;DHT22;18176;49.502;11.754;2024-01-10T10:43:55;1.80;99.90
21184;DHT22;18176;49.502;11.754;2024-01-10T10:48:17;2.00;99.30
21184;DHT22;18176;49.502;11.754;2024-01-10T10:52:45;2.30;99.40
21184;DHT22;18176;49.502;11.754;2024-01-10T10:57:10;2.90;98.10
21184;DHT22;18176;49.502;11.754;2024-01-10T11:01:32;3.30;96.80
21184;DHT22;18176;49.502;11.754;2024-01-10T11:05:55;3.20;95.80
21184;DHT22;18176;49.502;11.754;2024-01-10T11:10:23;3.20;96.10
21184;DHT22;18176;49.502;11.754;2024-01-10T11:15:02;3.60;95.60
21184;DHT22;18176;49.502;11.754;2024-01-10T11:19:51;3.90;94.60
21184;DHT22;18176;49.502;11.754;2024-01-10T11:24:28;4.10;94.40
21184;DHT22;18176;49.502;11.754;2024-01-10T11:28:52;4.30;93.90
21184;DHT22;18176;49.502;11.754;2024-01-10T11:33:21;4.20;93.60
21184;DHT22;18176;49.502;11.754;2024-01-10T11:37:44;4.30;93.30
21184;DHT22;18176;49.502;11.754;2024-01-10T11:42:11;4.40;93.40
21184;DHT22;18176;49.502;11.754;2024-01-10T11:46:38;4.70;93.10
21184;DHT22;18176;49.502;11.754;2024-01-10T11:51:00;4.70;92.30
21184;DHT22;18176;49.502;11.754;2024-01-10T11:55:47;4.70;91.90
21184;DHT22;18176;49.502;11.754;2024-01-10T12:00:11;4.80;92.00
21184;DHT22;18176;49.502;11.754;2024-01-10T12:04:35;5.20;91.80
21184;DHT22;18176;49.502;11.754;2024-01-10T12:09:05;5.40;91.00
21184;DHT22;18176;49.502;11.754;2024-01-10T12:13:28;5.30;91.00
21184;DHT22;18176;49.502;11.754;2024-01-10T12:17:51;5.70;90.60
21184;DHT22;18176;49.502;11.754;2024-01-10T12:22:16;5.70;90.00
21184;DHT22;18176;49.502;11.754;2024-01-10T12:26:43;5.50;90.20
21184;DHT22;18176;49.502;11.754;2024-01-10T12:31:06;6.10;89.20
21184;DHT22;18176;49.502;11.754;2024-01-10T12:35:28;5.50;90.00
21184;DHT22;18176;49.502;11.754;2024-01-10T12:39:51;5.40;90.20
21184;DHT22;18176;49.502;11.754;2024-01-10T12:44:14;6.10;89.90
21184;DHT22;18176;49.502;11.754;2024-01-10T12:48:35;6.00;89.80
21184;DHT22;18176;49.502;11.754;2024-01-10T12:52:58;6.20;89.20
21184;DHT22;18176;49.502;11.754;2024-01-10T12:57:22;6.40;87.40
21184;DHT22;18176;49.502;11.754;2024-01-10T13:01:43;6.80;88.00
21184;DHT22;18176;49.502;11.754;2024-01-10T13:06:05;7.10;86.60
21184;DHT22;18176;49.502;11.754;2024-01-10T13:10:27;7.60;86.00
21184;DHT22;18176;49.502;11.754;2024-01-10T13:14:50;8.30;83.00
21184;DHT22;18176;49.502;11.754;2024-01-10T13:19:11;9.00;81.20
21184;DHT22;18176;49.502;11.754;2024-01-10T13:23:32;8.70;78.50
21184;DHT22;18176;49.502;11.754;2024-01-10T13:27:54;8.30;80.20
21184;DHT22;18176;49.502;11.754;2024-01-10T13:32:17;8.00;81.00
21184;DHT22;18176;49.502;11.754;2024-01-10T13:36:38;7.90;80.50
21184;DHT22;18176;49.502;11.754;2024-01-10T13:40:59;7.30;81.30
21184;DHT22;18176;49.502;11.754;2024-01-10T13:45:21;7.30;82.10
21184;DHT22;18176;49.502;11.754;2024-01-10T13:49:44;6.90;81.80
21184;DHT22;18176;49.502;11.754;2024-01-10T13:54:05;5.80;84.20
21184;DHT22;18176;49.502;11.754;2024-01-10T13:58:26;6.10;86.50
21184;DHT22;18176;49.502;11.754;2024-01-10T14:02:47;6.90;84.80
21184;DHT22;18176;49.502;11.754;2024-01-10T14:07:10;7.30;82.20
21184;DHT22;18176;49.502;11.754;2024-01-10T14:11:31;6.50;83.80
21184;DHT22;18176;49.502;11.754;2024-01-10T14:15:52;6.70;83.80
21184;DHT22;18176;49.502;11.754;2024-01-10T14:20:13;6.40;84.30
21184;DHT22;18176;49.502;11.754;2024-01-10T14:24:37;5.90;85.80
21184;DHT22;18176;49.502;11.754;2024-01-10T14:28:57;5.50;86.60
21184;DHT22;18176;49.502;11.754;2024-01-10T14:33:18;4.90;88.90
21184;DHT22;18176;49.502;11.754;2024-01-10T14:37:39;4.60;90.20
21184;DHT22;18176;49.502;11.754;2024-01-10T14:42:02;4.40;90.50
21184;DHT22;18176;49.502;11.754;2024-01-10T14:46:24;3.60;91.80
21184;DHT22;18176;49.502;11.754;2024-01-10T14:50:45;3.10;93.00
21184;DHT22;18176;49.502;11.754;2024-01-10T14:55:07;2.90;94.00
21184;DHT22;18176;49.502;11.754;2024-01-10T14:59:31;2.70;94.00
21184;DHT22;18176;49.502;11.754;2024-01-10T15:04:03;2.40;94.90
21184;DHT22;18176;49.502;11.754;2024-01-10T15:08:24;2.20;95.20
21184;DHT22;18176;49.502;11.754;2024-01-10T15:12:44;1.80;96.20
21184;DHT22;18176;49.502;11.754;2024-01-10T15:17:08;1.50;96.70
21184;DHT22;18176;49.502;11.754;2024-01-10T15:21:30;1.40;97.40
21184;DHT22;18176;49.502;11.754;2024-01-10T15:25:51;1.10;98.10
21184;DHT22;18176;49.502;11.754;2024-01-10T15:30:13;0.70;99.10
21184;DHT22;18176;49.502;11.754;2024-01-10T15:34:38;0.30;99.90
21184;DHT22;18176;49.502;11.754;2024-01-10T15:38:58;-0.10;99.90
21184;DHT22;18176;49.502;11.754;2024-01-10T15:43:22;-0.40;99.90
21184;DHT22;18176;49.502;11.754;2024-01-10T15:47:42;-0.70;99.90
21184;DHT22;18176;49.502;11.754;2024-01-10T15:52:06;-0.90;99.90
21184;DHT22;18176;49.502;11.754;2024-01-10T15:56:27;-1.10;99.90
21184;DHT22;18176;49.502;11.754;2024-01-10T16:00:49;-1.20;99.90
21184;DHT22;18176;49.502;11.754;2024-01-10T16:05:09;-1.40;99.90
21184;DHT22;18176;49.502;11.754;2024-01-10T16:09:33;-1.50;99.90
21184;DHT22;18176;49.502;11.754;2024-01-10T16:13:54;-1.60;99.90
21184;DHT22;18176;49.502;11.754;2024-01-10T16:18:15;-1.70;99.90
21184;DHT22;18176;49.502;11.754;2024-01-10T16:22:35;-1.80;99.90
21184;DHT22;18176;49.502;11.754;2024-01-10T16:27:00;-1.90;99.90
21184;DHT22;18176;49.502;11.754;2024-01-10T16:31:20;-2.00;99.90
21184;DHT22;18176;49.502;11.754;2024-01-10T16:35:41;-2.10;99.90
21184;DHT22;18176;49.502;11.754;2024-01-10T16:40:04;-2.20;99.90
21184;DHT22;18176;49.502;11.754;2024-01-10T16:44:28;-2.20;99.90
21184;DHT22;18176;49.502;11.754;2024-01-10T16:48:49;-2.30;99.90
21184;DHT22;18176;49.502;11.754;2024-01-10T16:53:10;-2.40;99.90
21184;DHT22;18176;49.502;11.754;2024-01-10T16:57:30;-2.40;99.90
21184;DHT22;18176;49.502;11.754;2024-01-10T17:01:54;-2.40;99.90
21184;DHT22;18176;49.502;11.754;2024-01-10T17:06:15;-2.60;99.90
21184;DHT22;18176;49.502;11.754;2024-01-10T17:10:35;-2.60;99.90
21184;DHT22;18176;49.502;11.754;2024-01-10T17:14:56;-2.70;99.90
21184;DHT22;18176;49.502;11.754;2024-01-10T17:19:21;-2.70;99.90
21184;DHT22;18176;49.502;11.754;2024-01-10T17:23:42;-2.70;99.90
21184;DHT22;18176;49.502;11.754;2024-01-10T17:28:04;-2.80;99.90
21184;DHT22;18176;49.502;11.754;2024-01-10T17:32:25;-2.80;99.90
21184;DHT22;18176;49.502;11.754;2024-01-10T17:36:48;-2.90;99.90
21184;DHT22;18176;49.502;11.754;2024-01-10T17:41:10;-2.90;99.90
21184;DHT22;18176;49.502;11.754;2024-01-10T17:45:31;-2.90;99.90
21184;DHT22;18176;49.502;11.754;2024-01-10T17:49:52;-3.00;99.90
21184;DHT22;18176;49.502;11.754;2024-01-10T17:54:15;-3.00;99.90
21184;DHT22;18176;49.502;11.754;2024-01-10T17:58:36;-3.10;99.90
21184;DHT22;18176;49.502;11.754;2024-01-10T18:02:57;-3.30;99.90
21184;DHT22;18176;49.502;11.754;2024-01-10T18:07:19;-3.50;99.90
21184;DHT22;18176;49.502;11.754;2024-01-10T18:11:42;-3.60;99.90
21184;DHT22;18176;49.502;11.754;2024-01-10T18:16:03;-3.70;99.90
21184;DHT22;18176;49.502;11.754;2024-01-10T18:20:25;-3.70;99.90
21184;DHT22;18176;49.502;11.754;2024-01-10T18:24:46;-3.80;99.90
21184;DHT22;18176;49.502;11.754;2024-01-10T18:29:09;-3.90;99.90
21184;DHT22;18176;49.502;11.754;2024-01-10T18:33:31;-4.00;99.90
21184;DHT22;18176;49.502;11.754;2024-01-10T18:37:53;-4.10;99.90
21184;DHT22;18176;49.502;11.754;2024-01-10T18:42:14;-4.10;99.90
21184;DHT22;18176;49.502;11.754;2024-01-10T18:46:38;-4.10;99.90
21184;DHT22;18176;49.502;11.754;2024-01-10T18:51:01;-4.20;99.90
21184;DHT22;18176;49.502;11.754;2024-01-10T18:55:22;-4.20;99.90
21184;DHT22;18176;49.502;11.754;2024-01-10T18:59:43;-4.30;99.90
21184;DHT22;18176;49.502;11.754;2024-01-10T19:04:07;-4.30;99.90
21184;DHT22;18176;49.502;11.754;2024-01-10T19:08:28;-4.30;99.90
21184;DHT22;18176;49.502;11.754;2024-01-10T19:12:49;-4.40;99.90
21184;DHT22;18176;49.502;11.754;2024-01-10T19:17:11;-4.40;99.90
21184;DHT22;18176;49.502;11.754;2024-01-10T19:21:34;-4.50;99.90
21184;DHT22;18176;49.502;11.754;2024-01-10T19:25:55;-4.50;99.90
21184;DHT22;18176;49.502;11.754;2024-01-10T19:30:17;-4.60;99.90
21184;DHT22;18176;49.502;11.754;2024-01-10T19:34:40;-4.70;99.90
21184;DHT22;18176;49.502;11.754;2024-01-10T19:39:04;-4.70;99.90
21184;DHT22;18176;49.502;11.754;2024-01-10T19:43:25;-4.80;99.90
21184;DHT22;18176;49.502;11.754;2024-01-10T19:47:46;-4.80;99.90
21184;DHT22;18176;49.502;11.754;2024-01-10T19:52:07;-4.80;99.90
21184;DHT22;18176;49.502;11.754;2024-01-10T19:56:30;-4.70;99.90
21184;DHT22;18176;49.502;11.754;2024-01-10T20:00:53;-4.60;99.90
21184;DHT22;18176;49.502;11.754;2024-01-10T20:05:13;-4.60;99.90
21184;DHT22;18176;49.502;11.754;2024-01-10T20:09:35;-4.60;99.90
21184;DHT22;18176;49.502;11.754;2024-01-10T20:13:58;-4.70;99.90
21184;DHT22;18176;49.502;11.754;2024-01-10T20:18:19;-4.80;99.90
21184;DHT22;18176;49.502;11.754;2024-01-10T20:22:39;-4.90;99.90
21184;DHT22;18176;49.502;11.754;2024-01-10T20:27:00;-5.00;99.90
21184;DHT22;18176;49.502;11.754;2024-01-10T20:31:23;-5.10;99.90
21184;DHT22;18176;49.502;11.754;2024-01-10T20:35:44;-5.10;99.90
21184;DHT22;18176;49.502;11.754;2024-01-10T20:40:06;-5.10;99.90
21184;DHT22;18176;49.502;11.754;2024-01-10T20:44:27;-5.10;99.90
21184;DHT22;18176;49.502;11.754;2024-01-10T20:48:51;-5.20;99.90
21184;DHT22;18176;49.502;11.754;2024-01-10T20:53:14;-5.20;99.90
21184;DHT22;18176;49.502;11.754;2024-01-10T20:57:34;-5.30;99.90
21184;DHT22;18176;49.502;11.754;2024-01-10T21:01:55;-5.40;99.90
21184;DHT22;18176;49.502;11.754;2024-01-10T21:06:19;-5.40;99.90
21184;DHT22;18176;49.502;11.754;2024-01-10T21:10:39;-5.50;99.90
21184;DHT22;18176;49.502;11.754;2024-01-10T21:15:00;-5.60;99.90
21184;DHT22;18176;49.502;11.754;2024-01-10T21:19:21;-5.60;99.90
21184;DHT22;18176;49.502;11.754;2024-01-10T21:23:46;-5.70;99.90
21184;DHT22;18176;49.502;11.754;2024-01-10T21:28:07;-5.70;99.90
21184;DHT22;18176;49.502;11.754;2024-01-10T21:32:28;-5.80;99.90
21184;DHT22;18176;49.502;11.754;2024-01-10T21:36:49;-5.90;99.90
21184;DHT22;18176;49.502;11.754;2024-01-10T21:41:14;-5.90;99.90
21184;DHT22;18176;49.502;11.754;2024-01-10T21:45:35;-5.90;99.90
21184;DHT22;18176;49.502;11.754;2024-01-10T21:49:56;-6.00;99.90
21184;DHT22;18176;49.502;11.754;2024-01-10T21:54:17;-6.00;99.90
21184;DHT22;18176;49.502;11.754;2024-01-10T21:58:40;-6.10;99.90
21184;DHT22;18176;49.502;11.754;2024-01-10T22:03:01;-6.10;99.90
21184;DHT22;18176;49.502;11.754;2024-01-10T22:07:23;-6.10;99.90
21184;DHT22;18176;49.502;11.754;2024-01-10T22:11:44;-6.20;99.90
21184;DHT22;18176;49.502;11.754;2024-01-10T22:16:07;-6.30;99.90
21184;DHT22;18176;49.502;11.754;2024-01-10T22:20:28;-6.30;99.90
21184;DHT22;18176;49.502;11.754;2024-01-10T22:24:48;-6.30;99.90
21184;DHT22;18176;49.502;11.754;2024-01-10T22:29:09;-6.40;99.90
21184;DHT22;18176;49.502;11.754;2024-01-10T22:33:32;-6.40;99.90
21184;DHT22;18176;49.502;11.754;2024-01-10T22:37:53;-6.50;99.90
21184;DHT22;18176;49.502;11.754;2024-01-10T22:42:14;-6.50;99.90
21184;DHT22;18176;49.502;11.754;2024-01-10T22:46:35;-6.60;99.90
21184;DHT22;18176;49.502;11.754;2024-01-10T22:50:58;-6.60;99.90
21184;DHT22;18176;49.502;11.754;2024-01-10T22:55:19;-6.60;99.90
21184;DHT22;18176;49.502;11.754;2024-01-10T22:59:39;-6.70;99.90
21184;DHT22;18176;49.502;11.754;2024-01-10T23:04:00;-6.70;99.90
21184;DHT22;18176;49.502;11.754;2024-01-10T23:08:23;-6.80;99.90
21184;DHT22;18176;49.502;11.754;2024-01-10T23:12:44;-6.80;99.90
21184;DHT22;18176;49.502;11.754;2024-01-10T23:17:04;-6.90;99.90
21184;DHT22;18176;49.502;11.754;2024-01-10T23:21:26;-6.90;99.90
21184;DHT22;18176;49.502;11.754;2024-01-10T23:25:49;-6.90;99.90
21184;DHT22;18176;49.502;11.754;2024-01-10T23:30:10;-7.00;99.90
21184;DHT22;18176;49.502;11.754;2024-01-10T23:34:32;-7.00;99.90
21184;DHT22;18176;49.502;11.754;2024-01-10T23:38:53;-7.00;99.90
21184;DHT22;18176;49.502;11.754;2024-01-10T23:43:16;-7.10;99.90
21184;DHT22;18176;49.502;11.754;2024-01-10T23:47:44;-7.10;99.90
21184;DHT22;18176;49.502;11.754;2024-01-10T23:52:05;-7.20;99.90
21184;DHT22;18176;49.502;11.754;2024-01-10T23:56:30;-7.20;99.90
